sensor_id;sensor_type;location;lat;lon;timestamp;P1;durP1;ratioP1;P2;durP2;ratioP2
5507;SDS011;2776;51.046;6.772;2022-10-10T00:01:38;5.37;;;3.30;;
5507;SDS011;2776;51.046;6.772;2022-10-10T00:04:05;3.57;;;2.83;;
5507;SDS011;2776;51.046;6.772;2022-10-10T00:06:33;3.70;;;3.33;;
5507;SDS011;2776;51.046;6.772;2022-10-10T00:09:00;6.10;;;3.70;;
5507;SDS011;2776;51.046;6.772;2022-10-10T00:11:27;3.30;;;3.00;;
5507;SDS011;2776;51.046;6.772;2022-10-10T00:13:54;3.27;;;2.97;;
5507;SDS011;2776;51.046;6.772;2022-10-10T00:16:21;3.40;;;3.10;;
5507;SDS011;2776;51.046;6.772;2022-10-10T00:18:48;5.20;;;3.00;;
5507;SDS011;2776;51.046;6.772;2022-10-10T00:21:16;3.10;;;2.80;;
5507;SDS011;2776;51.046;6.772;2022-10-10T00:23:44;4.33;;;3.00;;
5507;SDS011;2776;51.046;6.772;2022-10-10T00:26:11;3.37;;;3.00;;
5507;SDS011;2776;51.046;6.772;2022-10-10T00:28:37;4.67;;;3.20;;
5507;SDS011;2776;51.046;6.772;2022-10-10T00:31:04;3.50;;;3.17;;
5507;SDS011;2776;51.046;6.772;2022-10-10T00:33:32;5.73;;;3.53;;
5507;SDS011;2776;51.046;6.772;2022-10-10T00:35:59;6.20;;;3.27;;
5507;SDS011;2776;51.046;6.772;2022-10-10T00:38:25;4.10;;;3.50;;
5507;SDS011;2776;51.046;6.772;2022-10-10T00:40:54;3.87;;;3.23;;
5507;SDS011;2776;51.046;6.772;2022-10-10T00:43:21;3.50;;;3.20;;
5507;SDS011;2776;51.046;6.772;2022-10-10T00:45:50;3.90;;;3.60;;
5507;SDS011;2776;51.046;6.772;2022-10-10T00:48:18;4.50;;;3.13;;
5507;SDS011;2776;51.046;6.772;2022-10-10T00:50:49;6.03;;;3.60;;
5507;SDS011;2776;51.046;6.772;2022-10-10T00:53:20;4.53;;;3.27;;
5507;SDS011;2776;51.046;6.772;2022-10-10T00:55:48;5.07;;;3.40;;
5507;SDS011;2776;51.046;6.772;2022-10-10T00:58:17;5.20;;;3.30;;
5507;SDS011;2776;51.046;6.772;2022-10-10T01:00:45;5.97;;;3.60;;
5507;SDS011;2776;51.046;6.772;2022-10-10T01:03:12;3.70;;;3.07;;
5507;SDS011;2776;51.046;6.772;2022-10-10T01:05:39;3.60;;;3.30;;
5507;SDS011;2776;51.046;6.772;2022-10-10T01:08:07;5.20;;;3.73;;
5507;SDS011;2776;51.046;6.772;2022-10-10T01:10:37;5.63;;;4.07;;
5507;SDS011;2776;51.046;6.772;2022-10-10T01:13:10;5.13;;;3.60;;
5507;SDS011;2776;51.046;6.772;2022-10-10T01:15:49;4.60;;;3.53;;
5507;SDS011;2776;51.046;6.772;2022-10-10T01:18:22;4.80;;;3.50;;
5507;SDS011;2776;51.046;6.772;2022-10-10T01:20:58;3.47;;;3.17;;
5507;SDS011;2776;51.046;6.772;2022-10-10T01:29:37;3.33;;;3.00;;
5507;SDS011;2776;51.046;6.772;2022-10-10T01:32:07;4.60;;;3.70;;
5507;SDS011;2776;51.046;6.772;2022-10-10T01:34:40;5.57;;;3.53;;
5507;SDS011;2776;51.046;6.772;2022-10-10T01:37:15;3.50;;;3.20;;
5507;SDS011;2776;51.046;6.772;2022-10-10T01:39:46;4.93;;;3.20;;
5507;SDS011;2776;51.046;6.772;2022-10-10T01:42:21;3.50;;;3.20;;
5507;SDS011;2776;51.046;6.772;2022-10-10T01:44:52;5.10;;;3.43;;
5507;SDS011;2776;51.046;6.772;2022-10-10T01:47:19;5.97;;;3.70;;
5507;SDS011;2776;51.046;6.772;2022-10-10T01:49:47;5.57;;;3.17;;
5507;SDS011;2776;51.046;6.772;2022-10-10T01:52:18;6.00;;;4.40;;
5507;SDS011;2776;51.046;6.772;2022-10-10T01:54:59;4.13;;;3.73;;
5507;SDS011;2776;51.046;6.772;2022-10-10T01:57:43;5.23;;;4.00;;
5507;SDS011;2776;51.046;6.772;2022-10-10T02:00:21;5.77;;;3.50;;
5507;SDS011;2776;51.046;6.772;2022-10-10T02:02:51;4.40;;;3.50;;
5507;SDS011;2776;51.046;6.772;2022-10-10T02:05:23;5.60;;;3.67;;
5507;SDS011;2776;51.046;6.772;2022-10-10T02:07:55;3.90;;;3.53;;
5507;SDS011;2776;51.046;6.772;2022-10-10T02:10:26;3.27;;;3.03;;
5507;SDS011;2776;51.046;6.772;2022-10-10T02:12:56;4.67;;;3.50;;
5507;SDS011;2776;51.046;6.772;2022-10-10T02:15:28;4.67;;;3.60;;
5507;SDS011;2776;51.046;6.772;2022-10-10T02:17:59;4.03;;;3.13;;
5507;SDS011;2776;51.046;6.772;2022-10-10T02:20:29;5.37;;;3.43;;
5507;SDS011;2776;51.046;6.772;2022-10-10T02:22:57;4.03;;;3.40;;
5507;SDS011;2776;51.046;6.772;2022-10-10T02:25:26;4.27;;;3.37;;
5507;SDS011;2776;51.046;6.772;2022-10-10T02:27:58;4.20;;;3.60;;
5507;SDS011;2776;51.046;6.772;2022-10-10T02:30:35;6.03;;;3.30;;
5507;SDS011;2776;51.046;6.772;2022-10-10T02:33:05;6.90;;;3.50;;
5507;SDS011;2776;51.046;6.772;2022-10-10T02:35:33;9.20;;;4.50;;
5507;SDS011;2776;51.046;6.772;2022-10-10T02:38:03;3.87;;;3.20;;
5507;SDS011;2776;51.046;6.772;2022-10-10T02:40:32;3.67;;;3.13;;
5507;SDS011;2776;51.046;6.772;2022-10-10T02:43:01;5.63;;;2.93;;
5507;SDS011;2776;51.046;6.772;2022-10-10T02:45:31;3.63;;;2.87;;
5507;SDS011;2776;51.046;6.772;2022-10-10T02:48:00;3.53;;;3.10;;
5507;SDS011;2776;51.046;6.772;2022-10-10T02:50:27;5.23;;;3.77;;
5507;SDS011;2776;51.046;6.772;2022-10-10T02:52:55;4.07;;;3.57;;
5507;SDS011;2776;51.046;6.772;2022-10-10T02:55:22;3.40;;;2.67;;
5507;SDS011;2776;51.046;6.772;2022-10-10T02:57:49;4.83;;;3.50;;
5507;SDS011;2776;51.046;6.772;2022-10-10T03:00:16;4.63;;;3.30;;
5507;SDS011;2776;51.046;6.772;2022-10-10T03:02:45;4.17;;;3.47;;
5507;SDS011;2776;51.046;6.772;2022-10-10T03:05:12;4.50;;;3.33;;
5507;SDS011;2776;51.046;6.772;2022-10-10T03:07:39;3.70;;;3.30;;
5507;SDS011;2776;51.046;6.772;2022-10-10T03:10:06;4.60;;;3.00;;
5507;SDS011;2776;51.046;6.772;2022-10-10T03:12:33;3.50;;;3.17;;
5507;SDS011;2776;51.046;6.772;2022-10-10T03:15:00;4.20;;;3.30;;
5507;SDS011;2776;51.046;6.772;2022-10-10T03:17:27;4.83;;;3.00;;
5507;SDS011;2776;51.046;6.772;2022-10-10T03:19:55;7.27;;;3.20;;
5507;SDS011;2776;51.046;6.772;2022-10-10T03:22:22;3.60;;;3.10;;
5507;SDS011;2776;51.046;6.772;2022-10-10T03:24:49;3.83;;;3.27;;
5507;SDS011;2776;51.046;6.772;2022-10-10T03:27:15;3.63;;;3.20;;
5507;SDS011;2776;51.046;6.772;2022-10-10T03:29:42;4.63;;;3.03;;
5507;SDS011;2776;51.046;6.772;2022-10-10T03:32:09;3.80;;;3.50;;
5507;SDS011;2776;51.046;6.772;2022-10-10T03:34:35;8.80;;;3.20;;
5507;SDS011;2776;51.046;6.772;2022-10-10T03:37:04;4.80;;;3.20;;
5507;SDS011;2776;51.046;6.772;2022-10-10T03:39:30;4.00;;;3.20;;
5507;SDS011;2776;51.046;6.772;2022-10-10T03:41:57;4.93;;;3.17;;
5507;SDS011;2776;51.046;6.772;2022-10-10T03:44:24;5.30;;;3.47;;
5507;SDS011;2776;51.046;6.772;2022-10-10T03:46:51;4.27;;;2.87;;
5507;SDS011;2776;51.046;6.772;2022-10-10T03:49:17;3.17;;;2.97;;
5507;SDS011;2776;51.046;6.772;2022-10-10T03:51:44;4.70;;;2.93;;
5507;SDS011;2776;51.046;6.772;2022-10-10T03:54:12;5.57;;;3.70;;
5507;SDS011;2776;51.046;6.772;2022-10-10T03:56:39;3.60;;;3.30;;
5507;SDS011;2776;51.046;6.772;2022-10-10T03:59:06;5.00;;;3.97;;
5507;SDS011;2776;51.046;6.772;2022-10-10T04:01:32;7.00;;;3.67;;
5507;SDS011;2776;51.046;6.772;2022-10-10T04:03:59;4.13;;;3.37;;
5507;SDS011;2776;51.046;6.772;2022-10-10T04:06:26;4.47;;;3.57;;
5507;SDS011;2776;51.046;6.772;2022-10-10T04:08:53;3.87;;;3.43;;
5507;SDS011;2776;51.046;6.772;2022-10-10T04:11:22;6.43;;;4.23;;
5507;SDS011;2776;51.046;6.772;2022-10-10T04:13:48;5.70;;;3.70;;
5507;SDS011;2776;51.046;6.772;2022-10-10T04:16:15;4.33;;;3.93;;
5507;SDS011;2776;51.046;6.772;2022-10-10T04:18:42;6.70;;;3.40;;
5507;SDS011;2776;51.046;6.772;2022-10-10T04:21:08;5.03;;;3.30;;
5507;SDS011;2776;51.046;6.772;2022-10-10T04:23:36;4.03;;;3.63;;
5507;SDS011;2776;51.046;6.772;2022-10-10T04:26:04;8.03;;;3.90;;
5507;SDS011;2776;51.046;6.772;2022-10-10T04:28:32;5.07;;;3.97;;
5507;SDS011;2776;51.046;6.772;2022-10-10T04:30:59;5.77;;;3.53;;
5507;SDS011;2776;51.046;6.772;2022-10-10T04:33:26;4.33;;;3.70;;
5507;SDS011;2776;51.046;6.772;2022-10-10T04:35:52;8.13;;;3.67;;
5507;SDS011;2776;51.046;6.772;2022-10-10T04:38:19;3.53;;;3.10;;
5507;SDS011;2776;51.046;6.772;2022-10-10T04:40:46;4.07;;;3.47;;
5507;SDS011;2776;51.046;6.772;2022-10-10T04:43:14;9.07;;;3.70;;
5507;SDS011;2776;51.046;6.772;2022-10-10T04:45:42;5.63;;;3.33;;
5507;SDS011;2776;51.046;6.772;2022-10-10T04:48:09;4.53;;;3.27;;
5507;SDS011;2776;51.046;6.772;2022-10-10T04:50:36;6.17;;;3.80;;
5507;SDS011;2776;51.046;6.772;2022-10-10T04:53:03;7.37;;;3.20;;
5507;SDS011;2776;51.046;6.772;2022-10-10T04:55:30;4.33;;;3.63;;
5507;SDS011;2776;51.046;6.772;2022-10-10T04:57:56;4.77;;;3.20;;
5507;SDS011;2776;51.046;6.772;2022-10-10T05:00:23;4.13;;;3.30;;
5507;SDS011;2776;51.046;6.772;2022-10-10T05:02:51;4.10;;;3.80;;
5507;SDS011;2776;51.046;6.772;2022-10-10T05:05:18;5.27;;;3.80;;
5507;SDS011;2776;51.046;6.772;2022-10-10T05:07:45;5.03;;;3.90;;
5507;SDS011;2776;51.046;6.772;2022-10-10T05:10:12;4.30;;;3.67;;
5507;SDS011;2776;51.046;6.772;2022-10-10T05:12:38;5.20;;;3.93;;
5507;SDS011;2776;51.046;6.772;2022-10-10T05:15:05;6.23;;;3.73;;
5507;SDS011;2776;51.046;6.772;2022-10-10T05:17:33;5.37;;;3.83;;
5507;SDS011;2776;51.046;6.772;2022-10-10T05:20:01;4.23;;;3.53;;
5507;SDS011;2776;51.046;6.772;2022-10-10T05:22:28;5.10;;;3.50;;
5507;SDS011;2776;51.046;6.772;2022-10-10T05:24:55;6.03;;;3.60;;
5507;SDS011;2776;51.046;6.772;2022-10-10T05:27:23;5.33;;;3.23;;
5507;SDS011;2776;51.046;6.772;2022-10-10T05:29:50;4.63;;;3.60;;
5507;SDS011;2776;51.046;6.772;2022-10-10T05:32:17;4.33;;;3.53;;
5507;SDS011;2776;51.046;6.772;2022-10-10T05:34:44;4.90;;;3.60;;
5507;SDS011;2776;51.046;6.772;2022-10-10T05:37:12;4.93;;;3.60;;
5507;SDS011;2776;51.046;6.772;2022-10-10T05:39:39;4.23;;;3.47;;
5507;SDS011;2776;51.046;6.772;2022-10-10T05:42:06;7.93;;;4.17;;
5507;SDS011;2776;51.046;6.772;2022-10-10T05:44:33;4.83;;;3.50;;
5507;SDS011;2776;51.046;6.772;2022-10-10T05:46:59;9.47;;;4.30;;
5507;SDS011;2776;51.046;6.772;2022-10-10T05:49:28;4.07;;;3.63;;
5507;SDS011;2776;51.046;6.772;2022-10-10T05:51:55;5.20;;;3.73;;
5507;SDS011;2776;51.046;6.772;2022-10-10T05:54:23;5.53;;;3.50;;
5507;SDS011;2776;51.046;6.772;2022-10-10T05:56:49;6.00;;;3.83;;
5507;SDS011;2776;51.046;6.772;2022-10-10T05:59:16;5.03;;;3.90;;
5507;SDS011;2776;51.046;6.772;2022-10-10T06:01:43;7.43;;;3.53;;
5507;SDS011;2776;51.046;6.772;2022-10-10T06:04:10;5.23;;;3.63;;
5507;SDS011;2776;51.046;6.772;2022-10-10T06:06:37;6.87;;;4.17;;
5507;SDS011;2776;51.046;6.772;2022-10-10T06:09:03;5.97;;;4.00;;
5507;SDS011;2776;51.046;6.772;2022-10-10T06:11:31;4.93;;;3.60;;
5507;SDS011;2776;51.046;6.772;2022-10-10T06:13:58;6.23;;;4.00;;
5507;SDS011;2776;51.046;6.772;2022-10-10T06:16:25;5.50;;;4.10;;
5507;SDS011;2776;51.046;6.772;2022-10-10T06:18:53;8.07;;;4.30;;
5507;SDS011;2776;51.046;6.772;2022-10-10T06:21:21;6.20;;;3.97;;
5507;SDS011;2776;51.046;6.772;2022-10-10T06:23:47;5.80;;;3.73;;
5507;SDS011;2776;51.046;6.772;2022-10-10T06:26:14;5.33;;;3.70;;
5507;SDS011;2776;51.046;6.772;2022-10-10T06:28:42;6.00;;;3.90;;
5507;SDS011;2776;51.046;6.772;2022-10-10T06:31:10;5.57;;;3.90;;
5507;SDS011;2776;51.046;6.772;2022-10-10T06:33:39;5.43;;;4.00;;
5507;SDS011;2776;51.046;6.772;2022-10-10T06:36:07;6.60;;;4.53;;
5507;SDS011;2776;51.046;6.772;2022-10-10T06:38:35;6.50;;;4.03;;
5507;SDS011;2776;51.046;6.772;2022-10-10T06:41:02;5.60;;;4.00;;
5507;SDS011;2776;51.046;6.772;2022-10-10T06:43:30;7.70;;;4.27;;
5507;SDS011;2776;51.046;6.772;2022-10-10T06:45:58;5.23;;;4.20;;
5507;SDS011;2776;51.046;6.772;2022-10-10T06:48:25;5.23;;;3.90;;
5507;SDS011;2776;51.046;6.772;2022-10-10T06:50:54;6.80;;;3.77;;
5507;SDS011;2776;51.046;6.772;2022-10-10T06:53:22;5.23;;;3.77;;
5507;SDS011;2776;51.046;6.772;2022-10-10T06:55:49;5.33;;;4.03;;
5507;SDS011;2776;51.046;6.772;2022-10-10T06:58:16;3.77;;;3.47;;
5507;SDS011;2776;51.046;6.772;2022-10-10T07:00:47;7.30;;;3.90;;
5507;SDS011;2776;51.046;6.772;2022-10-10T07:03:16;5.53;;;4.20;;
5507;SDS011;2776;51.046;6.772;2022-10-10T07:05:42;6.17;;;4.30;;
5507;SDS011;2776;51.046;6.772;2022-10-10T07:08:09;5.47;;;4.37;;
5507;SDS011;2776;51.046;6.772;2022-10-10T07:10:38;6.13;;;4.03;;
5507;SDS011;2776;51.046;6.772;2022-10-10T07:13:05;7.83;;;3.83;;
5507;SDS011;2776;51.046;6.772;2022-10-10T07:15:32;6.53;;;4.20;;
5507;SDS011;2776;51.046;6.772;2022-10-10T07:17:59;5.07;;;4.03;;
5507;SDS011;2776;51.046;6.772;2022-10-10T07:20:27;6.33;;;4.20;;
5507;SDS011;2776;51.046;6.772;2022-10-10T07:22:54;5.50;;;3.53;;
5507;SDS011;2776;51.046;6.772;2022-10-10T07:25:21;6.00;;;4.40;;
5507;SDS011;2776;51.046;6.772;2022-10-10T07:27:47;8.17;;;4.27;;
5507;SDS011;2776;51.046;6.772;2022-10-10T07:30:14;6.27;;;3.90;;
5507;SDS011;2776;51.046;6.772;2022-10-10T07:32:41;4.83;;;3.87;;
5507;SDS011;2776;51.046;6.772;2022-10-10T07:35:08;5.67;;;3.83;;
5507;SDS011;2776;51.046;6.772;2022-10-10T07:37:37;5.50;;;3.80;;
5507;SDS011;2776;51.046;6.772;2022-10-10T07:40:04;6.60;;;3.83;;
5507;SDS011;2776;51.046;6.772;2022-10-10T07:42:33;7.80;;;4.40;;
5507;SDS011;2776;51.046;6.772;2022-10-10T07:44:59;4.33;;;3.93;;
5507;SDS011;2776;51.046;6.772;2022-10-10T07:47:28;6.87;;;3.60;;
5507;SDS011;2776;51.046;6.772;2022-10-10T07:49:55;9.40;;;4.10;;
5507;SDS011;2776;51.046;6.772;2022-10-10T07:52:21;5.13;;;3.40;;
5507;SDS011;2776;51.046;6.772;2022-10-10T07:54:49;5.73;;;3.97;;
5507;SDS011;2776;51.046;6.772;2022-10-10T07:57:16;5.93;;;4.07;;
5507;SDS011;2776;51.046;6.772;2022-10-10T07:59:43;10.47;;;3.90;;
5507;SDS011;2776;51.046;6.772;2022-10-10T08:02:10;7.50;;;4.13;;
5507;SDS011;2776;51.046;6.772;2022-10-10T08:04:37;7.07;;;3.90;;
5507;SDS011;2776;51.046;6.772;2022-10-10T08:07:04;6.00;;;3.80;;
5507;SDS011;2776;51.046;6.772;2022-10-10T08:09:31;5.33;;;3.53;;
5507;SDS011;2776;51.046;6.772;2022-10-10T08:11:59;6.83;;;3.97;;
5507;SDS011;2776;51.046;6.772;2022-10-10T08:14:26;7.87;;;4.00;;
5507;SDS011;2776;51.046;6.772;2022-10-10T08:16:52;7.13;;;4.00;;
5507;SDS011;2776;51.046;6.772;2022-10-10T08:19:19;8.47;;;4.30;;
5507;SDS011;2776;51.046;6.772;2022-10-10T08:21:46;8.20;;;4.00;;
5507;SDS011;2776;51.046;6.772;2022-10-10T08:24:13;9.10;;;4.00;;
5507;SDS011;2776;51.046;6.772;2022-10-10T08:26:40;7.07;;;4.37;;
5507;SDS011;2776;51.046;6.772;2022-10-10T08:29:08;6.83;;;4.40;;
5507;SDS011;2776;51.046;6.772;2022-10-10T08:31:35;4.97;;;4.03;;
5507;SDS011;2776;51.046;6.772;2022-10-10T08:34:02;9.50;;;4.47;;
5507;SDS011;2776;51.046;6.772;2022-10-10T08:36:29;7.30;;;4.13;;
5507;SDS011;2776;51.046;6.772;2022-10-10T08:38:55;9.03;;;4.40;;
5507;SDS011;2776;51.046;6.772;2022-10-10T08:41:26;6.57;;;4.20;;
5507;SDS011;2776;51.046;6.772;2022-10-10T08:44:00;6.30;;;3.93;;
5507;SDS011;2776;51.046;6.772;2022-10-10T08:46:34;7.47;;;4.40;;
5507;SDS011;2776;51.046;6.772;2022-10-10T08:49:06;10.10;;;4.37;;
5507;SDS011;2776;51.046;6.772;2022-10-10T08:51:41;11.53;;;5.07;;
5507;SDS011;2776;51.046;6.772;2022-10-10T08:54:13;6.87;;;4.90;;
5507;SDS011;2776;51.046;6.772;2022-10-10T08:56:41;7.40;;;4.50;;
5507;SDS011;2776;51.046;6.772;2022-10-10T08:59:09;7.67;;;5.20;;
5507;SDS011;2776;51.046;6.772;2022-10-10T09:01:42;6.00;;;4.77;;
5507;SDS011;2776;51.046;6.772;2022-10-10T09:04:12;8.17;;;5.10;;
5507;SDS011;2776;51.046;6.772;2022-10-10T09:06:44;6.97;;;5.00;;
5507;SDS011;2776;51.046;6.772;2022-10-10T09:09:24;6.07;;;4.53;;
5507;SDS011;2776;51.046;6.772;2022-10-10T09:12:01;6.73;;;4.30;;
5507;SDS011;2776;51.046;6.772;2022-10-10T09:14:38;7.50;;;4.60;;
5507;SDS011;2776;51.046;6.772;2022-10-10T09:17:17;9.88;;;5.00;;
5507;SDS011;2776;51.046;6.772;2022-10-10T09:19:51;8.77;;;4.50;;
5507;SDS011;2776;51.046;6.772;2022-10-10T09:22:25;5.07;;;4.40;;
5507;SDS011;2776;51.046;6.772;2022-10-10T09:24:56;5.60;;;3.87;;
5507;SDS011;2776;51.046;6.772;2022-10-10T09:27:31;7.53;;;3.87;;
5507;SDS011;2776;51.046;6.772;2022-10-10T09:30:03;7.37;;;3.63;;
5507;SDS011;2776;51.046;6.772;2022-10-10T09:32:36;7.70;;;3.70;;
5507;SDS011;2776;51.046;6.772;2022-10-10T09:35:11;7.33;;;4.13;;
5507;SDS011;2776;51.046;6.772;2022-10-10T09:37:42;9.27;;;3.93;;
5507;SDS011;2776;51.046;6.772;2022-10-10T09:40:12;5.83;;;3.50;;
5507;SDS011;2776;51.046;6.772;2022-10-10T09:42:45;4.87;;;3.40;;
5507;SDS011;2776;51.046;6.772;2022-10-10T09:45:14;5.70;;;3.20;;
5507;SDS011;2776;51.046;6.772;2022-10-10T09:47:45;6.47;;;3.27;;
5507;SDS011;2776;51.046;6.772;2022-10-10T09:50:13;7.63;;;4.40;;
5507;SDS011;2776;51.046;6.772;2022-10-10T09:52:41;7.20;;;2.70;;
5507;SDS011;2776;51.046;6.772;2022-10-10T09:55:16;5.43;;;3.30;;
5507;SDS011;2776;51.046;6.772;2022-10-10T09:57:48;4.63;;;3.30;;
5507;SDS011;2776;51.046;6.772;2022-10-10T10:00:32;8.30;;;3.83;;
5507;SDS011;2776;51.046;6.772;2022-10-10T10:03:14;6.53;;;3.80;;
5507;SDS011;2776;51.046;6.772;2022-10-10T10:05:43;6.57;;;3.30;;
5507;SDS011;2776;51.046;6.772;2022-10-10T10:08:19;8.43;;;3.20;;
5507;SDS011;2776;51.046;6.772;2022-10-10T10:10:49;9.00;;;4.30;;
5507;SDS011;2776;51.046;6.772;2022-10-10T10:13:18;5.97;;;3.47;;
5507;SDS011;2776;51.046;6.772;2022-10-10T10:15:49;10.17;;;3.00;;
5507;SDS011;2776;51.046;6.772;2022-10-10T10:18:22;8.80;;;3.87;;
5507;SDS011;2776;51.046;6.772;2022-10-10T10:20:52;5.70;;;3.30;;
5507;SDS011;2776;51.046;6.772;2022-10-10T10:23:34;8.10;;;3.17;;
5507;SDS011;2776;51.046;6.772;2022-10-10T10:26:03;5.63;;;3.00;;
5507;SDS011;2776;51.046;6.772;2022-10-10T10:28:31;7.40;;;2.90;;
5507;SDS011;2776;51.046;6.772;2022-10-10T10:31:05;7.70;;;3.50;;
5507;SDS011;2776;51.046;6.772;2022-10-10T10:33:44;3.60;;;2.97;;
5507;SDS011;2776;51.046;6.772;2022-10-10T10:36:20;8.90;;;3.17;;
5507;SDS011;2776;51.046;6.772;2022-10-10T10:38:58;7.23;;;3.33;;
5507;SDS011;2776;51.046;6.772;2022-10-10T10:41:36;7.93;;;3.23;;
5507;SDS011;2776;51.046;6.772;2022-10-10T10:44:18;5.10;;;2.27;;
5507;SDS011;2776;51.046;6.772;2022-10-10T10:46:56;7.17;;;2.47;;
5507;SDS011;2776;51.046;6.772;2022-10-10T10:49:33;4.70;;;2.30;;
5507;SDS011;2776;51.046;6.772;2022-10-10T10:52:05;7.87;;;2.50;;
5507;SDS011;2776;51.046;6.772;2022-10-10T10:54:51;3.87;;;2.10;;
5507;SDS011;2776;51.046;6.772;2022-10-10T10:57:29;13.55;;;2.03;;
5507;SDS011;2776;51.046;6.772;2022-10-10T11:00:07;4.90;;;1.80;;
5507;SDS011;2776;51.046;6.772;2022-10-10T11:02:38;7.43;;;1.80;;
5507;SDS011;2776;51.046;6.772;2022-10-10T11:05:29;7.40;;;2.20;;
5507;SDS011;2776;51.046;6.772;2022-10-10T11:08:13;5.70;;;2.03;;
5507;SDS011;2776;51.046;6.772;2022-10-10T11:11:03;4.13;;;2.28;;
5507;SDS011;2776;51.046;6.772;2022-10-10T11:13:55;14.13;;;2.85;;
5507;SDS011;2776;51.046;6.772;2022-10-10T11:16:26;7.28;;;2.20;;
5507;SDS011;2776;51.046;6.772;2022-10-10T11:19:00;3.20;;;1.80;;
5507;SDS011;2776;51.046;6.772;2022-10-10T11:21:36;6.72;;;2.38;;
5507;SDS011;2776;51.046;6.772;2022-10-10T11:24:06;4.00;;;2.15;;
5507;SDS011;2776;51.046;6.772;2022-10-10T11:26:38;5.22;;;2.10;;
5507;SDS011;2776;51.046;6.772;2022-10-10T11:29:10;7.25;;;2.25;;
5507;SDS011;2776;51.046;6.772;2022-10-10T11:31:40;4.13;;;1.83;;
5507;SDS011;2776;51.046;6.772;2022-10-10T11:34:13;3.92;;;2.30;;
5507;SDS011;2776;51.046;6.772;2022-10-10T11:36:47;6.60;;;1.70;;
5507;SDS011;2776;51.046;6.772;2022-10-10T11:39:19;8.10;;;2.25;;
5507;SDS011;2776;51.046;6.772;2022-10-10T11:41:52;5.32;;;2.13;;
5507;SDS011;2776;51.046;6.772;2022-10-10T11:44:22;5.20;;;2.13;;
5507;SDS011;2776;51.046;6.772;2022-10-10T11:46:55;7.57;;;2.30;;
5507;SDS011;2776;51.046;6.772;2022-10-10T11:49:27;6.55;;;2.08;;
5507;SDS011;2776;51.046;6.772;2022-10-10T11:52:09;10.45;;;2.00;;
5507;SDS011;2776;51.046;6.772;2022-10-10T11:54:43;6.95;;;1.98;;
5507;SDS011;2776;51.046;6.772;2022-10-10T11:57:17;6.72;;;1.73;;
5507;SDS011;2776;51.046;6.772;2022-10-10T11:59:48;8.48;;;2.38;;
5507;SDS011;2776;51.046;6.772;2022-10-10T12:02:19;9.50;;;2.30;;
5507;SDS011;2776;51.046;6.772;2022-10-10T12:04:50;8.32;;;2.15;;
5507;SDS011;2776;51.046;6.772;2022-10-10T12:07:19;11.52;;;6.53;;
5507;SDS011;2776;51.046;6.772;2022-10-10T12:09:50;7.15;;;2.13;;
5507;SDS011;2776;51.046;6.772;2022-10-10T12:12:21;5.88;;;1.90;;
5507;SDS011;2776;51.046;6.772;2022-10-10T12:14:51;11.43;;;2.38;;
5507;SDS011;2776;51.046;6.772;2022-10-10T12:17:20;8.23;;;2.60;;
5507;SDS011;2776;51.046;6.772;2022-10-10T12:19:50;9.40;;;2.10;;
5507;SDS011;2776;51.046;6.772;2022-10-10T12:22:23;8.05;;;2.05;;
5507;SDS011;2776;51.046;6.772;2022-10-10T12:25:04;9.45;;;2.33;;
5507;SDS011;2776;51.046;6.772;2022-10-10T12:27:45;6.57;;;2.03;;
5507;SDS011;2776;51.046;6.772;2022-10-10T12:30:26;8.18;;;1.92;;
5507;SDS011;2776;51.046;6.772;2022-10-10T12:32:53;7.00;;;2.58;;
5507;SDS011;2776;51.046;6.772;2022-10-10T12:38:14;8.68;;;2.17;;
5507;SDS011;2776;51.046;6.772;2022-10-10T12:43:41;13.63;;;2.50;;
5507;SDS011;2776;51.046;6.772;2022-10-10T12:46:14;8.55;;;2.25;;
5507;SDS011;2776;51.046;6.772;2022-10-10T12:49:00;8.73;;;1.98;;
5507;SDS011;2776;51.046;6.772;2022-10-10T12:51:31;7.05;;;2.10;;
5507;SDS011;2776;51.046;6.772;2022-10-10T12:54:02;6.60;;;2.38;;
5507;SDS011;2776;51.046;6.772;2022-10-10T12:56:36;12.52;;;2.28;;
5507;SDS011;2776;51.046;6.772;2022-10-10T12:59:05;7.25;;;2.40;;
5507;SDS011;2776;51.046;6.772;2022-10-10T13:01:43;7.57;;;2.45;;
5507;SDS011;2776;51.046;6.772;2022-10-10T13:04:15;8.15;;;2.38;;
5507;SDS011;2776;51.046;6.772;2022-10-10T13:06:43;7.65;;;2.42;;
5507;SDS011;2776;51.046;6.772;2022-10-10T13:09:15;9.07;;;2.67;;
5507;SDS011;2776;51.046;6.772;2022-10-10T13:11:51;9.88;;;2.33;;
5507;SDS011;2776;51.046;6.772;2022-10-10T13:14:19;7.85;;;2.38;;
5507;SDS011;2776;51.046;6.772;2022-10-10T13:16:46;10.13;;;2.13;;
5507;SDS011;2776;51.046;6.772;2022-10-10T13:19:15;8.60;;;2.10;;
5507;SDS011;2776;51.046;6.772;2022-10-10T13:21:45;10.68;;;2.53;;
5507;SDS011;2776;51.046;6.772;2022-10-10T13:24:13;5.60;;;2.00;;
5507;SDS011;2776;51.046;6.772;2022-10-10T13:26:44;8.45;;;2.20;;
5507;SDS011;2776;51.046;6.772;2022-10-10T13:29:18;7.60;;;2.42;;
5507;SDS011;2776;51.046;6.772;2022-10-10T13:31:48;12.73;;;2.60;;
5507;SDS011;2776;51.046;6.772;2022-10-10T13:34:17;9.27;;;2.50;;
5507;SDS011;2776;51.046;6.772;2022-10-10T13:36:46;6.80;;;2.38;;
5507;SDS011;2776;51.046;6.772;2022-10-10T13:39:13;12.00;;;2.53;;
5507;SDS011;2776;51.046;6.772;2022-10-10T13:41:43;10.70;;;3.30;;
5507;SDS011;2776;51.046;6.772;2022-10-10T13:44:12;10.45;;;2.55;;
5507;SDS011;2776;51.046;6.772;2022-10-10T13:46:40;8.23;;;2.40;;
5507;SDS011;2776;51.046;6.772;2022-10-10T13:49:12;9.30;;;2.60;;
5507;SDS011;2776;51.046;6.772;2022-10-10T13:51:45;9.57;;;2.67;;
5507;SDS011;2776;51.046;6.772;2022-10-10T13:54:35;13.20;;;3.90;;
5507;SDS011;2776;51.046;6.772;2022-10-10T13:57:10;10.20;;;2.40;;
5507;SDS011;2776;51.046;6.772;2022-10-10T13:59:41;8.65;;;2.25;;
5507;SDS011;2776;51.046;6.772;2022-10-10T14:02:11;12.65;;;2.78;;
5507;SDS011;2776;51.046;6.772;2022-10-10T14:04:45;10.57;;;2.83;;
5507;SDS011;2776;51.046;6.772;2022-10-10T14:07:15;11.52;;;2.45;;
5507;SDS011;2776;51.046;6.772;2022-10-10T14:09:50;11.02;;;2.67;;
5507;SDS011;2776;51.046;6.772;2022-10-10T14:12:22;7.07;;;2.10;;
5507;SDS011;2776;51.046;6.772;2022-10-10T14:14:52;12.63;;;2.53;;
5507;SDS011;2776;51.046;6.772;2022-10-10T14:17:20;10.18;;;2.67;;
5507;SDS011;2776;51.046;6.772;2022-10-10T14:19:47;12.57;;;2.60;;
5507;SDS011;2776;51.046;6.772;2022-10-10T14:22:14;10.32;;;4.90;;
5507;SDS011;2776;51.046;6.772;2022-10-10T14:24:42;10.13;;;3.70;;
5507;SDS011;2776;51.046;6.772;2022-10-10T14:27:14;11.10;;;2.67;;
5507;SDS011;2776;51.046;6.772;2022-10-10T14:29:47;13.10;;;2.88;;
5507;SDS011;2776;51.046;6.772;2022-10-10T14:32:14;12.73;;;3.00;;
5507;SDS011;2776;51.046;6.772;2022-10-10T14:34:41;13.30;;;2.25;;
5507;SDS011;2776;51.046;6.772;2022-10-10T14:37:11;9.73;;;2.90;;
5507;SDS011;2776;51.046;6.772;2022-10-10T14:39:42;6.15;;;2.40;;
5507;SDS011;2776;51.046;6.772;2022-10-10T14:42:10;10.85;;;3.00;;
5507;SDS011;2776;51.046;6.772;2022-10-10T14:44:39;9.60;;;2.30;;
5507;SDS011;2776;51.046;6.772;2022-10-10T14:47:06;8.65;;;2.28;;
5507;SDS011;2776;51.046;6.772;2022-10-10T14:49:34;15.00;;;2.97;;
5507;SDS011;2776;51.046;6.772;2022-10-10T14:52:01;16.95;;;4.72;;
5507;SDS011;2776;51.046;6.772;2022-10-10T14:54:27;9.85;;;2.53;;
5507;SDS011;2776;51.046;6.772;2022-10-10T14:56:54;8.55;;;2.58;;
5507;SDS011;2776;51.046;6.772;2022-10-10T14:59:21;10.25;;;3.10;;
5507;SDS011;2776;51.046;6.772;2022-10-10T15:01:49;9.45;;;3.08;;
5507;SDS011;2776;51.046;6.772;2022-10-10T15:04:15;11.18;;;3.72;;
5507;SDS011;2776;51.046;6.772;2022-10-10T15:06:42;11.20;;;2.58;;
5507;SDS011;2776;51.046;6.772;2022-10-10T15:09:09;7.85;;;2.47;;
5507;SDS011;2776;51.046;6.772;2022-10-10T15:11:37;9.63;;;3.53;;
5507;SDS011;2776;51.046;6.772;2022-10-10T15:14:04;15.20;;;3.65;;
5507;SDS011;2776;51.046;6.772;2022-10-10T15:16:31;10.70;;;3.60;;
5507;SDS011;2776;51.046;6.772;2022-10-10T15:18:59;11.30;;;3.13;;
5507;SDS011;2776;51.046;6.772;2022-10-10T15:21:26;12.10;;;4.63;;
5507;SDS011;2776;51.046;6.772;2022-10-10T15:23:52;9.33;;;3.40;;
5507;SDS011;2776;51.046;6.772;2022-10-10T15:26:20;6.07;;;2.70;;
5507;SDS011;2776;51.046;6.772;2022-10-10T15:28:47;10.43;;;5.33;;
5507;SDS011;2776;51.046;6.772;2022-10-10T15:31:14;12.90;;;3.20;;
5507;SDS011;2776;51.046;6.772;2022-10-10T15:33:40;10.47;;;3.13;;
5507;SDS011;2776;51.046;6.772;2022-10-10T15:36:09;8.90;;;3.00;;
5507;SDS011;2776;51.046;6.772;2022-10-10T15:38:35;10.43;;;3.10;;
5507;SDS011;2776;51.046;6.772;2022-10-10T15:41:03;8.57;;;3.17;;